Time;durP1;ratioP1;P1;durP2;ratioP2;P2;SDS_P1;SDS_P2;PMS_P1;PMS_P2;Temp;Humidity;BMP_temperature;BMP_pressure;BME280_temperature;BME280_humidity;BME280_pressure;Samples;Min_cycle;Max_cycle;Signal;HPM_P1;HPM_P2
2022/08/16 00:01:24;;;;;;;3.30;3.00;;;;;;;-148.82;100.00;60434.72;4986483;28;20267;-64
2022/08/16 00:03:55;;;;;;;2.97;2.83;;;;;;;-148.82;100.00;60434.72;4971465;28;20295;-60
2022/08/16 00:06:24;;;;;;;2.90;2.70;;;;;;;-148.82;100.00;60434.72;4985416;28;20201;-63
2022/08/16 00:08:52;;;;;;;2.80;2.60;;;;;;;-148.82;100.00;60434.72;4934994;28;20214;-63
2022/08/16 00:11:22;;;;;;;2.87;2.67;;;;;;;-148.82;100.00;60434.72;4988181;28;20201;-64
2022/08/16 00:13:51;;;;;;;3.07;2.87;;;;;;;-148.82;100.00;60434.72;4981196;28;20201;-61
2022/08/16 00:16:22;;;;;;;2.93;2.73;;;;;;;-148.82;100.00;60434.72;4982052;28;20284;-64
2022/08/16 00:19:10;;;;;;;2.93;2.73;;;;;;;-148.82;100.00;60434.72;4966148;28;20538;-63
2022/08/16 00:21:41;;;;;;;2.90;2.70;;;;;;;-148.82;100.00;60434.72;4987530;28;20200;-64
2022/08/16 00:24:09;;;;;;;3.00;2.90;;;;;;;-148.82;100.00;60434.72;4932808;28;20890;-64
2022/08/16 00:26:41;;;;;;;3.13;2.93;;;;;;;-148.82;100.00;60434.72;4983210;28;20283;-64
2022/08/16 00:29:13;;;;;;;3.37;2.70;;;;;;;-148.82;100.00;60434.72;4983237;28;20772;-65
2022/08/16 00:31:44;;;;;;;3.00;2.83;;;;;;;-148.82;100.00;60434.72;4982787;28;20237;-60
2022/08/16 00:34:28;;;;;;;3.07;2.97;;;;;;;-148.82;100.00;60434.72;4968819;28;20297;-64
2022/08/16 00:37:18;;;;;;;3.67;2.70;;;;;;;-148.82;100.00;60434.72;4983583;28;20410;-64
2022/08/16 00:39:48;;;;;;;3.37;3.17;;;;;;;-148.82;100.00;60434.72;4935572;28;20224;-60
2022/08/16 00:42:27;;;;;;;3.23;3.03;;;;;;;-148.82;100.00;60434.72;4983571;28;20608;-62
2022/08/16 00:45:01;;;;;;;2.77;2.67;;;;;;;-148.82;100.00;60434.72;4983281;28;20232;-62
2022/08/16 00:47:34;;;;;;;3.50;3.20;;;;;;;-148.82;100.00;60434.72;4991867;28;20286;-65
2022/08/16 00:50:05;;;;;;;3.10;2.90;;;;;;;-148.82;100.00;60434.72;4963597;28;20237;-63
2022/08/16 00:52:39;;;;;;;3.17;2.87;;;;;;;-148.82;100.00;60434.72;4986984;28;20197;-65
2022/08/16 00:55:20;;;;;;;2.87;2.70;;;;;;;-148.82;100.00;60434.72;4932691;28;20312;-63
2022/08/16 00:57:53;;;;;;;3.87;3.17;;;;;;;-148.82;100.00;60434.72;4981094;28;20339;-62
2022/08/16 01:00:29;;;;;;;3.50;3.20;;;;;;;-148.82;100.00;60434.72;4987763;28;20208;-63
2022/08/16 01:03:00;;;;;;;3.03;2.93;;;;;;;-148.82;100.00;60434.72;4982382;28;20674;-60
2022/08/16 01:05:30;;;;;;;3.27;3.07;;;;;;;-148.82;100.00;60434.72;4970448;28;20213;-63
2022/08/16 01:08:00;;;;;;;3.47;3.27;;;;;;;-148.82;100.00;60434.72;4985733;28;20228;-59
2022/08/16 01:10:30;;;;;;;3.20;3.00;;;;;;;-148.82;100.00;60434.72;4934518;28;20515;-64
2022/08/16 01:13:05;;;;;;;3.03;2.83;;;;;;;-148.82;100.00;60434.72;4980805;28;20213;-65
2022/08/16 01:15:36;;;;;;;3.00;2.80;;;;;;;-148.82;100.00;60434.72;4978383;28;20577;-62
2022/08/16 01:18:13;;;;;;;3.07;2.87;;;;;;;-148.82;100.00;60434.72;4982891;28;20217;-63
2022/08/16 01:21:07;;;;;;;3.20;3.00;;;;;;;-148.82;100.00;60434.72;4962797;28;20207;-62
2022/08/16 01:23:48;;;;;;;3.77;3.37;;;;;;;-148.82;100.00;60434.72;4988252;28;20827;-59
2022/08/16 01:26:29;;;;;;;3.40;3.20;;;;;;;-148.82;100.00;60434.72;4939347;28;20216;-64
2022/08/16 01:29:06;;;;;;;3.43;3.23;;;;;;;-148.82;100.00;60434.72;4983272;28;20204;-63
2022/08/16 01:31:37;;;;;;;3.17;2.97;;;;;;;-148.82;100.00;60434.72;4990619;28;20277;-64
2022/08/16 01:34:11;;;;;;;3.30;3.10;;;;;;;-148.82;100.00;60434.72;4984753;28;20886;-63
2022/08/16 01:37:02;;;;;;;3.27;2.97;;;;;;;-148.82;100.00;60434.72;4980065;28;20243;-60
2022/08/16 01:39:32;;;;;;;3.63;3.33;;;;;;;-148.82;100.00;60434.72;4995273;28;20282;-64
2022/08/16 01:42:03;;;;;;;3.70;3.40;;;;;;;-148.82;100.00;60434.72;4935781;28;20311;-59
2022/08/16 01:44:40;;;;;;;3.50;3.20;;;;;;;-148.82;100.00;60434.72;4986177;28;20224;-62
2022/08/16 01:47:10;;;;;;;3.40;3.20;;;;;;;-148.82;100.00;60434.72;4982625;28;20921;-61
2022/08/16 01:49:40;;;;;;;3.50;3.30;;;;;;;-148.82;100.00;60434.72;4987458;28;20930;-65
2022/08/16 01:52:28;;;;;;;3.53;3.23;;;;;;;-148.82;100.00;60434.72;4969939;28;20356;-62
2022/08/16 01:54:59;;;;;;;4.07;3.33;;;;;;;-148.82;100.00;60434.72;4987574;28;20206;-61
2022/08/16 01:57:29;;;;;;;3.23;3.03;;;;;;;-148.82;100.00;60434.72;4941559;28;20229;-65
2022/08/16 01:59:58;;;;;;;3.67;3.47;;;;;;;-148.82;100.00;60434.72;4986788;28;20777;-62
2022/08/16 02:02:27;;;;;;;3.37;3.17;;;;;;;-148.82;100.00;60434.72;4932085;28;20244;-65
2022/08/16 02:04:56;;;;;;;3.83;3.53;;;;;;;-148.82;100.00;60434.72;4985892;28;20213;-64
2022/08/16 02:07:25;;;;;;;4.60;3.63;;;;;;;-148.82;100.00;60434.72;4963302;28;20328;-64
2022/08/16 02:09:54;;;;;;;3.63;3.43;;;;;;;-148.82;100.00;60434.72;4988639;28;20312;-65
2022/08/16 02:12:27;;;;;;;4.47;3.73;;;;;;;-148.82;100.00;60434.72;4968032;28;20206;-61
2022/08/16 02:15:16;;;;;;;4.30;3.90;;;;;;;-148.82;100.00;60434.72;4984393;28;20209;-60
2022/08/16 02:17:52;;;;;;;3.50;3.30;;;;;;;-148.82;100.00;60434.72;4909162;28;20232;-62
2022/08/16 02:20:21;;;;;;;4.50;3.70;;;;;;;-148.82;100.00;60434.72;4985377;28;20220;-62
2022/08/16 02:22:53;;;;;;;3.50;3.30;;;;;;;-148.82;100.00;60434.72;4983604;28;20210;-63
2022/08/16 02:25:22;;;;;;;3.47;3.27;;;;;;;-148.82;100.00;60434.72;4986145;28;20210;-62
2022/08/16 02:27:52;;;;;;;3.90;3.50;;;;;;;-148.82;100.00;60434.72;4960183;28;20573;-64
2022/08/16 02:30:23;;;;;;;3.93;3.63;;;;;;;-148.82;100.00;60434.72;4990507;28;20237;-63
2022/08/16 02:33:12;;;;;;;3.57;3.30;;;;;;;-148.82;100.00;60434.72;4932072;28;20315;-64
2022/08/16 02:35:42;;;;;;;3.83;3.63;;;;;;;-148.82;100.00;60434.72;4985205;28;20205;-62
2022/08/16 02:38:25;;;;;;;3.70;3.50;;;;;;;-148.82;100.00;60434.72;4988323;28;20233;-63
2022/08/16 02:40:54;;;;;;;3.33;3.13;;;;;;;-148.82;100.00;60434.72;4986600;28;20397;-63
2022/08/16 02:43:25;;;;;;;3.97;3.60;;;;;;;-148.82;100.00;60434.72;4961190;28;20213;-63
2022/08/16 02:45:54;;;;;;;4.30;4.00;;;;;;;-148.82;100.00;60434.72;4981004;28;20209;-65
2022/08/16 02:48:23;;;;;;;3.90;3.43;;;;;;;-148.82;100.00;60434.72;4931878;28;20508;-65
2022/08/16 02:50:58;;;;;;;4.30;3.90;;;;;;;-148.82;100.00;60434.72;4979471;28;20224;-62
2022/08/16 02:53:40;;;;;;;3.97;3.77;;;;;;;-148.82;100.00;60434.72;4983378;28;20286;-58
2022/08/16 02:56:11;;;;;;;3.90;3.70;;;;;;;-148.82;100.00;60434.72;4985283;28;20232;-60
2022/08/16 02:58:45;;;;;;;3.67;3.47;;;;;;;-148.82;100.00;60434.72;4968020;28;20555;-58
2022/08/16 03:01:13;;;;;;;3.73;3.23;;;;;;;-148.82;100.00;60434.72;4989378;28;20712;-64
2022/08/16 03:04:01;;;;;;;3.90;3.60;;;;;;;-148.82;100.00;60434.72;4931808;28;20735;-64
2022/08/16 03:06:50;;;;;;;3.87;3.60;;;;;;;-148.82;100.00;60434.72;4982190;28;20513;-63
2022/08/16 03:09:24;;;;;;;4.23;3.93;;;;;;;-148.82;100.00;60434.72;4984122;28;20243;-65
2022/08/16 03:11:57;;;;;;;3.97;3.77;;;;;;;-148.82;100.00;60434.72;4984875;28;20454;-64
2022/08/16 03:14:29;;;;;;;3.93;3.60;;;;;;;-148.82;100.00;60434.72;4983589;28;20791;-59
2022/08/16 03:16:58;;;;;;;4.63;4.23;;;;;;;-148.82;100.00;60434.72;4962421;28;20232;-64
2022/08/16 03:19:30;;;;;;;6.57;5.97;;;;;;;-148.82;100.00;60434.72;4931072;28;20347;-62
2022/08/16 03:22:19;;;;;;;6.43;6.03;;;;;;;-148.82;100.00;60434.72;4982211;28;20204;-64
2022/08/16 03:24:57;;;;;;;4.97;4.50;;;;;;;-148.82;100.00;60434.72;4985898;28;20453;-64
2022/08/16 03:27:28;;;;;;;4.63;4.07;;;;;;;-148.82;100.00;60434.72;4988142;28;20232;-61
2022/08/16 03:30:00;;;;;;;4.13;3.93;;;;;;;-148.82;100.00;60434.72;4986116;28;20497;-63
2022/08/16 03:32:37;;;;;;;6.30;4.47;;;;;;;-148.82;100.00;60434.72;4960189;28;20381;-60
2022/08/16 03:35:08;;;;;;;4.73;4.33;;;;;;;-148.82;100.00;60434.72;4966821;28;20213;-62
2022/08/16 03:37:42;;;;;;;4.60;4.30;;;;;;;-148.82;100.00;60434.72;4981079;28;20228;-61
2022/08/16 03:40:29;;;;;;;4.37;4.07;;;;;;;-148.82;100.00;60434.72;4988468;28;20574;-61
2022/08/16 03:43:00;;;;;;;4.37;4.07;;;;;;;-148.82;100.00;60434.72;4984589;28;20323;-63
2022/08/16 03:45:50;;;;;;;3.97;3.67;;;;;;;-148.82;100.00;60434.72;4982821;28;20819;-60
2022/08/16 03:48:22;;;;;;;4.37;4.00;;;;;;;-148.82;100.00;60434.72;4964611;28;20240;-64
2022/08/16 03:51:08;;;;;;;5.27;4.77;;;;;;;-148.82;100.00;60434.72;4968821;28;20348;-63
2022/08/16 03:53:40;;;;;;;4.47;4.17;;;;;;;-148.82;100.00;60434.72;4981355;28;20290;-61
2022/08/16 03:56:09;;;;;;;4.47;4.17;;;;;;;-148.82;100.00;60434.72;4986994;28;20748;-63
2022/08/16 03:58:48;;;;;;;5.43;4.93;;;;;;;-148.82;100.00;60434.72;4982629;28;20366;-63
2022/08/16 04:01:19;;;;;;;4.57;4.20;;;;;;;-148.82;100.00;60434.72;4985981;28;20236;-62
2022/08/16 04:03:49;;;;;;;5.23;4.83;;;;;;;-148.82;100.00;60434.72;4953748;28;20579;-63
2022/08/16 04:06:19;;;;;;;5.10;4.70;;;;;;;-148.82;100.00;60434.72;4933497;28;20221;-62
2022/08/16 04:08:48;;;;;;;5.23;4.80;;;;;;;-148.82;100.00;60434.72;4923876;28;20306;-63
2022/08/16 04:11:16;;;;;;;4.50;4.07;;;;;;;-148.82;100.00;60434.72;4955002;28;20538;-63
2022/08/16 04:13:46;;;;;;;4.87;4.47;;;;;;;-148.82;100.00;60434.72;4983512;28;20469;-63
2022/08/16 04:16:36;;;;;;;4.40;4.07;;;;;;;-148.82;100.00;60434.72;4958063;28;20233;-63
2022/08/16 04:19:05;;;;;;;4.63;4.33;;;;;;;-148.82;100.00;60434.72;4979025;28;20241;-61
2022/08/16 04:21:34;;;;;;;4.30;4.00;;;;;;;-148.82;100.00;60434.72;4988816;28;20249;-59
2022/08/16 04:24:13;;;;;;;4.00;3.70;;;;;;;-148.82;100.00;60434.72;4929310;28;20219;-64
2022/08/16 04:26:42;;;;;;;4.73;4.30;;;;;;;-148.82;100.00;60434.72;4985929;28;20308;-63
2022/08/16 04:29:14;;;;;;;4.90;4.50;;;;;;;-148.82;100.00;60434.72;4979388;28;20331;-62
2022/08/16 04:31:53;;;;;;;4.80;4.50;;;;;;;-148.82;100.00;60434.72;4961732;28;20237;-62
2022/08/16 04:34:26;;;;;;;5.10;4.60;;;;;;;-148.82;100.00;60434.72;4984149;28;20257;-64
2022/08/16 04:36:56;;;;;;;4.87;4.50;;;;;;;-148.82;100.00;60434.72;4987930;28;20357;-60
2022/08/16 04:39:25;;;;;;;4.80;4.40;;;;;;;-148.82;100.00;60434.72;4934994;28;20804;-64
2022/08/16 04:42:13;;;;;;;5.23;4.83;;;;;;;-148.82;100.00;60434.72;4978923;28;20355;-62
2022/08/16 04:44:42;;;;;;;4.80;4.47;;;;;;;-148.82;100.00;60434.72;4988201;28;20232;-65
2022/08/16 04:47:25;;;;;;;5.47;4.97;;;;;;;-148.82;100.00;60434.72;4956319;28;20689;-60
2022/08/16 04:49:58;;;;;;;5.53;5.13;;;;;;;-148.82;100.00;60434.72;4982643;28;20212;-62
2022/08/16 04:52:28;;;;;;;7.03;5.70;;;;;;;-148.82;100.00;60434.72;4981310;28;20232;-65
2022/08/16 04:55:12;;;;;;;5.43;5.03;;;;;;;-148.82;100.00;60434.72;4952643;28;20209;-57
2022/08/16 04:57:42;;;;;;;5.13;4.73;;;;;;;-148.82;100.00;60434.72;4979809;28;20213;-65
2022/08/16 05:00:14;;;;;;;5.77;5.37;;;;;;;-148.82;100.00;60434.72;4983269;28;20286;-62
2022/08/16 05:03:04;;;;;;;5.30;4.90;;;;;;;-148.82;100.00;60434.72;4967668;28;20705;-60
2022/08/16 05:05:37;;;;;;;5.07;4.53;;;;;;;-148.82;100.00;60434.72;4989185;28;20685;-65
2022/08/16 05:08:25;;;;;;;5.00;4.60;;;;;;;-148.82;100.00;60434.72;4983516;28;20265;-63
2022/08/16 05:10:58;;;;;;;4.97;4.57;;;;;;;-148.82;100.00;60434.72;4939471;28;20348;-60
2022/08/16 05:13:30;;;;;;;4.70;4.30;;;;;;;-148.82;100.00;60434.72;4983856;28;20295;-61
2022/08/16 05:16:13;;;;;;;5.23;4.73;;;;;;;-148.82;100.00;60434.72;4986888;28;20243;-59
2022/08/16 05:18:51;;;;;;;5.17;4.77;;;;;;;-148.82;100.00;60434.72;4968342;28;20258;-63
2022/08/16 05:21:20;;;;;;;3.70;3.50;;;;;;;-148.82;100.00;60434.72;4981952;28;20216;-65
2022/08/16 05:23:49;;;;;;;5.07;4.17;;;;;;;-148.82;100.00;60434.72;4986659;28;20193;-65
2022/08/16 05:26:25;;;;;;;4.93;4.53;;;;;;;-148.82;100.00;60434.72;4937874;28;20732;-64
2022/08/16 05:28:55;;;;;;;4.67;4.37;;;;;;;-148.82;100.00;60434.72;4986227;28;20213;-62
2022/08/16 05:31:24;;;;;;;4.63;4.17;;;;;;;-148.82;100.00;60434.72;4982742;28;20689;-64
2022/08/16 05:34:04;;;;;;;5.07;4.67;;;;;;;-148.82;100.00;60434.72;4989468;28;20368;-61
2022/08/16 05:36:48;;;;;;;4.30;4.00;;;;;;;-148.82;100.00;60434.72;4988431;28;20316;-63
2022/08/16 05:39:19;;;;;;;4.57;4.30;;;;;;;-148.82;100.00;60434.72;4981692;28;20845;-61
2022/08/16 05:41:49;;;;;;;4.80;4.50;;;;;;;-148.82;100.00;60434.72;4993572;28;20659;-65
2022/08/16 05:44:21;;;;;;;4.40;4.13;;;;;;;-148.82;100.00;60434.72;4937928;28;20862;-65
2022/08/16 05:46:57;;;;;;;5.03;4.20;;;;;;;-148.82;100.00;60434.72;4990108;28;20221;-65
2022/08/16 05:49:30;;;;;;;4.30;4.00;;;;;;;-148.82;100.00;60434.72;4988291;28;20212;-65
2022/08/16 05:52:08;;;;;;;4.03;3.77;;;;;;;-148.82;100.00;60434.72;4926966;28;20229;-63
2022/08/16 05:54:39;;;;;;;4.70;4.30;;;;;;;-148.82;100.00;60434.72;4985296;28;20466;-62
2022/08/16 05:57:28;;;;;;;4.80;4.40;;;;;;;-148.82;100.00;60434.72;4983016;28;20804;-62
2022/08/16 06:00:05;;;;;;;4.70;4.30;;;;;;;-148.82;100.00;60434.72;4984902;28;20263;-62
2022/08/16 06:02:36;;;;;;;4.47;4.07;;;;;;;-148.82;100.00;60434.72;4982475;28;20498;-64
2022/08/16 06:05:07;;;;;;;4.50;4.20;;;;;;;-148.82;100.00;60434.72;4984981;28;20210;-64
2022/08/16 06:07:37;;;;;;;5.40;4.73;;;;;;;-148.82;100.00;60434.72;4956993;28;20888;-61
2022/08/16 06:10:07;;;;;;;4.53;4.23;;;;;;;-148.82;100.00;60434.72;4989678;28;20231;-63
2022/08/16 06:12:36;;;;;;;4.90;3.80;;;;;;;-148.82;100.00;60434.72;4987077;28;20224;-63
2022/08/16 06:15:07;;;;;;;5.57;5.13;;;;;;;-148.82;100.00;60434.72;4932728;28;20854;-61
2022/08/16 06:17:37;;;;;;;5.47;4.53;;;;;;;-148.82;100.00;60434.72;4927333;28;20255;-61
2022/08/16 06:20:18;;;;;;;5.07;4.70;;;;;;;-148.82;100.00;60434.72;4974894;28;20520;-64
2022/08/16 06:22:54;;;;;;;4.70;4.40;;;;;;;-148.82;100.00;60434.72;4974167;28;20666;-58
2022/08/16 06:25:31;;;;;;;5.00;4.60;;;;;;;-148.82;100.00;60434.72;4991091;28;20212;-65
2022/08/16 06:28:08;;;;;;;4.60;4.30;;;;;;;-148.82;100.00;60434.72;4989571;28;20236;-66
2022/08/16 06:30:47;;;;;;;4.37;4.07;;;;;;;-148.82;100.00;60434.72;4970474;28;20243;-60
2022/08/16 06:33:24;;;;;;;4.40;4.10;;;;;;;-148.82;100.00;60434.72;4985240;28;20224;-65
2022/08/16 06:35:55;;;;;;;4.27;3.97;;;;;;;-148.82;100.00;60434.72;4985617;28;20208;-62
2022/08/16 06:38:26;;;;;;;5.00;4.33;;;;;;;-148.82;100.00;60434.72;4969803;28;20319;-65
2022/08/16 06:41:02;;;;;;;4.23;4.03;;;;;;;-148.82;100.00;60434.72;4988096;28;20840;-63
2022/08/16 06:43:31;;;;;;;4.20;3.90;;;;;;;-148.82;100.00;60434.72;4992189;28;20216;-64
2022/08/16 06:45:59;;;;;;;4.77;4.10;;;;;;;-148.82;100.00;60434.72;4936643;28;21307;-62
2022/08/16 06:48:31;;;;;;;4.47;4.07;;;;;;;-148.82;100.00;60434.72;4988267;28;20707;-63
2022/08/16 06:51:04;;;;;;;4.50;4.20;;;;;;;-148.82;100.00;60434.72;4981607;28;20455;-63
2022/08/16 06:53:34;;;;;;;4.63;4.33;;;;;;;-148.82;100.00;60434.72;4989220;28;20221;-62
2022/08/16 06:56:06;;;;;;;4.40;4.20;;;;;;;-148.82;100.00;60434.72;4968307;28;20508;-65
2022/08/16 06:58:51;;;;;;;4.73;4.23;;;;;;;-148.82;100.00;60434.72;4985797;28;20530;-61
2022/08/16 07:01:20;;;;;;;3.80;3.60;;;;;;;-148.82;100.00;60434.72;4939171;28;20213;-64
2022/08/16 07:04:08;;;;;;;4.23;3.93;;;;;;;-148.82;100.00;60434.72;4981107;28;20239;-59
2022/08/16 07:06:41;;;;;;;4.00;3.63;;;;;;;-148.82;100.00;60434.72;4990055;28;20221;-61
2022/08/16 07:09:11;;;;;;;3.90;3.57;;;;;;;-148.82;100.00;60434.72;4989164;28;20227;-63
2022/08/16 07:11:43;;;;;;;3.93;3.63;;;;;;;-148.82;100.00;60434.72;4968674;28;20222;-61
2022/08/16 07:14:13;;;;;;;4.93;3.90;;;;;;;-148.82;100.00;60434.72;4984688;28;20290;-64
2022/08/16 07:17:02;;;;;;;3.90;3.70;;;;;;;-148.82;100.00;60434.72;4941192;28;20225;-58
2022/08/16 07:19:35;;;;;;;3.73;3.53;;;;;;;-148.82;100.00;60434.72;4986082;28;20284;-65
2022/08/16 07:22:25;;;;;;;3.73;3.50;;;;;;;-148.82;100.00;60434.72;4987357;28;20317;-64
2022/08/16 07:25:10;;;;;;;3.97;3.60;;;;;;;-148.82;100.00;60434.72;4983547;28;20209;-64
2022/08/16 07:27:41;;;;;;;3.93;3.63;;;;;;;-148.82;100.00;60434.72;4968641;28;20231;-61
2022/08/16 07:30:13;;;;;;;3.33;3.13;;;;;;;-148.82;100.00;60434.72;4989650;28;20248;-62
2022/08/16 07:33:01;;;;;;;4.37;3.90;;;;;;;-148.82;100.00;60434.72;4935291;28;20757;-62
2022/08/16 07:35:29;;;;;;;3.50;3.20;;;;;;;-148.82;100.00;60434.72;4984759;28;20307;-64
2022/08/16 07:38:00;;;;;;;4.00;3.67;;;;;;;-148.82;100.00;60434.72;4983530;28;20316;-62
2022/08/16 07:40:30;;;;;;;4.17;3.97;;;;;;;-148.82;100.00;60434.72;4987789;28;20209;-63
2022/08/16 07:43:19;;;;;;;4.33;3.97;;;;;;;-148.82;100.00;60434.72;4972081;28;20711;-60
2022/08/16 07:45:47;;;;;;;4.53;3.67;;;;;;;-148.82;100.00;60434.72;4987475;28;20679;-61
2022/08/16 07:48:20;;;;;;;4.00;3.80;;;;;;;-148.82;100.00;60434.72;4935309;28;20240;-65
2022/08/16 07:50:51;;;;;;;3.80;3.53;;;;;;;-148.82;100.00;60434.72;4981090;28;20276;-61
2022/08/16 07:53:28;;;;;;;3.60;3.30;;;;;;;-148.82;100.00;60434.72;4987520;28;20621;-62
2022/08/16 07:55:58;;;;;;;3.80;3.50;;;;;;;-148.82;100.00;60434.72;4983067;28;20604;-64
2022/08/16 07:58:28;;;;;;;3.53;3.33;;;;;;;-148.82;100.00;60434.72;4966248;28;20746;-64
2022/08/16 08:01:04;;;;;;;4.10;3.80;;;;;;;-148.82;100.00;60434.72;4984927;28;20228;-65
2022/08/16 08:03:42;;;;;;;3.43;3.13;;;;;;;-148.82;100.00;60434.72;4936970;28;20224;-60
2022/08/16 08:06:17;;;;;;;2.97;2.70;;;;;;;-148.82;100.00;60434.72;4983666;28;20229;-62
2022/08/16 08:08:47;;;;;;;3.10;2.90;;;;;;;-148.82;100.00;60434.72;4988292;28;20209;-62
2022/08/16 08:11:20;;;;;;;3.87;3.57;;;;;;;-148.82;100.00;60434.72;4989224;28;20515;-64
2022/08/16 08:13:51;;;;;;;3.60;3.33;;;;;;;-148.82;100.00;60434.72;4972825;28;20224;-59
2022/08/16 08:16:21;;;;;;;3.50;3.23;;;;;;;-148.82;100.00;60434.72;4987419;28;20205;-64
2022/08/16 08:18:58;;;;;;;3.90;3.60;;;;;;;-148.82;100.00;60434.72;4928097;28;20825;-64
2022/08/16 08:21:30;;;;;;;2.93;2.83;;;;;;;-148.82;100.00;60434.72;4984984;28;23023;-64
2022/08/16 08:24:21;;;;;;;3.47;3.17;;;;;;;-148.82;100.00;60434.72;4925788;28;20236;-62
2022/08/16 08:27:00;;;;;;;3.30;3.20;;;;;;;-148.82;100.00;60434.72;4963204;28;20250;-65
2022/08/16 08:29:31;;;;;;;3.03;2.83;;;;;;;-148.82;100.00;60434.72;4983784;28;20342;-65
2022/08/16 08:32:08;;;;;;;3.77;3.30;;;;;;;-148.82;100.00;60434.72;4968629;28;20220;-62
2022/08/16 08:34:57;;;;;;;3.47;3.20;;;;;;;-148.82;100.00;60434.72;4984758;28;20974;-61
2022/08/16 08:37:31;;;;;;;3.27;3.07;;;;;;;-148.82;100.00;60434.72;4990531;28;20434;-63
2022/08/16 08:40:21;;;;;;;3.43;3.23;;;;;;;-148.82;100.00;60434.72;4937218;28;20631;-61
2022/08/16 08:42:54;;;;;;;3.33;3.00;;;;;;;-148.82;100.00;60434.72;4989522;28;20215;-64
2022/08/16 08:45:38;;;;;;;3.30;3.10;;;;;;;-148.82;100.00;60434.72;4987862;28;20524;-63
2022/08/16 08:48:20;;;;;;;3.57;3.13;;;;;;;-148.82;100.00;60434.72;4967695;28;20231;-61
2022/08/16 08:51:02;;;;;;;3.67;3.43;;;;;;;-148.82;100.00;60434.72;4991838;28;20206;-63
2022/08/16 08:53:32;;;;;;;3.93;3.37;;;;;;;-148.82;100.00;60434.72;4989617;28;20311;-63
2022/08/16 08:56:02;;;;;;;3.60;3.30;;;;;;;-148.82;100.00;60434.72;4944431;28;20221;-63
2022/08/16 08:58:51;;;;;;;3.97;3.53;;;;;;;-148.82;100.00;60434.72;4990989;28;20275;-65
2022/08/16 09:01:27;;;;;;;3.80;3.50;;;;;;;-148.82;100.00;60434.72;4989652;28;20213;-64
2022/08/16 09:04:04;;;;;;;4.07;3.77;;;;;;;-148.82;100.00;60434.72;4974416;28;20219;-58
2022/08/16 09:06:33;;;;;;;3.97;3.53;;;;;;;-148.82;100.00;60434.72;4987133;28;20204;-62
2022/08/16 09:09:02;;;;;;;4.23;3.83;;;;;;;-148.82;100.00;60434.72;4993081;28;20212;-63
2022/08/16 09:11:33;;;;;;;4.00;3.47;;;;;;;-148.82;100.00;60434.72;4941020;28;20472;-62
2022/08/16 09:14:08;;;;;;;4.10;3.57;;;;;;;-148.82;100.00;60434.72;4984280;28;20229;-61
2022/08/16 09:16:51;;;;;;;4.70;3.90;;;;;;;-148.82;100.00;60434.72;4993279;28;20228;-63
2022/08/16 09:19:32;;;;;;;3.50;3.23;;;;;;;-148.82;100.00;60434.72;4973093;28;20213;-62
2022/08/16 09:22:02;;;;;;;6.73;3.93;;;;;;;-148.82;100.00;60434.72;4995316;28;20215;-64
2022/08/16 09:24:31;;;;;;;3.93;3.63;;;;;;;-148.82;100.00;60434.72;4992745;28;20227;-63
2022/08/16 09:27:21;;;;;;;6.37;3.30;;;;;;;-148.82;100.00;60434.72;4936600;28;20228;-60
2022/08/16 09:29:52;;;;;;;3.87;3.50;;;;;;;-148.82;100.00;60434.72;4993025;28;20290;-64
2022/08/16 09:32:28;;;;;;;3.50;3.20;;;;;;;-148.82;100.00;60434.72;4985648;28;20468;-63
2022/08/16 09:34:58;;;;;;;4.80;3.73;;;;;;;-148.82;100.00;60434.72;4973031;28;20602;-62
2022/08/16 09:37:27;;;;;;;3.73;3.53;;;;;;;-148.82;100.00;60434.72;4987375;28;20442;-63
2022/08/16 09:39:57;;;;;;;3.93;3.63;;;;;;;-148.82;100.00;60434.72;4995923;28;20340;-60
2022/08/16 09:42:29;;;;;;;3.60;3.30;;;;;;;-148.82;100.00;60434.72;4941069;28;20217;-63
2022/08/16 09:45:17;;;;;;;3.60;3.40;;;;;;;-148.82;100.00;60434.72;4984310;28;20259;-61
2022/08/16 09:47:53;;;;;;;4.13;3.30;;;;;;;-148.82;100.00;60434.72;4990096;28;20730;-63
2022/08/16 09:50:25;;;;;;;3.80;3.60;;;;;;;-148.82;100.00;60434.72;4968787;28;20598;-64
2022/08/16 09:53:08;;;;;;;4.33;3.73;;;;;;;-148.82;100.00;60434.72;4989488;28;20267;-59
2022/08/16 09:55:46;;;;;;;3.43;3.23;;;;;;;-148.82;100.00;60434.72;4941351;28;20625;-65
2022/08/16 09:58:19;;;;;;;3.97;3.33;;;;;;;-148.82;100.00;60434.72;4982948;28;20229;-59
2022/08/16 10:01:07;;;;;;;4.27;3.97;;;;;;;-148.82;100.00;60434.72;4988422;28;20742;-61
2022/08/16 10:03:38;;;;;;;3.73;3.43;;;;;;;-148.82;100.00;60434.72;4988733;28;20517;-64
2022/08/16 10:06:27;;;;;;;3.83;3.53;;;;;;;-148.82;100.00;60434.72;4967466;28;20726;-64
2022/08/16 10:09:02;;;;;;;3.70;3.50;;;;;;;-148.82;100.00;60434.72;4993602;28;20212;-62
2022/08/16 10:14:22;;;;;;;3.83;3.57;;;;;;;-148.82;100.00;60434.72;4985152;28;20232;-62
2022/08/16 10:17:03;;;;;;;3.50;3.30;;;;;;;-148.82;100.00;60434.72;4986524;28;20243;-64
2022/08/16 10:19:32;;;;;;;3.53;3.33;;;;;;;-148.82;100.00;60434.72;4988065;28;20201;-63
2022/08/16 10:22:00;;;;;;;4.13;3.57;;;;;;;-148.82;100.00;60434.72;4988560;28;20548;-64
2022/08/16 10:24:32;;;;;;;3.57;3.27;;;;;;;-148.82;100.00;60434.72;4969013;28;20764;-63
2022/08/16 10:27:02;;;;;;;3.57;3.27;;;;;;;-148.82;100.00;60434.72;4990405;28;20693;-63
2022/08/16 10:29:53;;;;;;;3.10;2.90;;;;;;;-148.82;100.00;60434.72;4986136;28;20260;-62
2022/08/16 10:32:29;;;;;;;3.07;2.87;;;;;;;-148.82;100.00;60434.72;4909932;28;20634;-57
2022/08/16 10:35:00;;;;;;;3.57;3.37;;;;;;;-148.82;100.00;60434.72;4985894;28;20229;-62
2022/08/16 10:37:29;;;;;;;3.60;3.30;;;;;;;-148.82;100.00;60434.72;4984156;28;20254;-60
2022/08/16 10:40:05;;;;;;;3.30;3.00;;;;;;;-148.82;100.00;60434.72;4984044;28;20530;-62
2022/08/16 10:42:53;;;;;;;3.50;3.20;;;;;;;-148.82;100.00;60434.72;4984581;28;20941;-64
2022/08/16 10:45:32;;;;;;;4.77;3.27;;;;;;;-148.82;100.00;60434.72;4988094;28;20212;-61
2022/08/16 10:48:06;;;;;;;3.53;3.27;;;;;;;-148.82;100.00;60434.72;4981125;28;20252;-62
2022/08/16 10:50:56;;;;;;;3.33;3.13;;;;;;;-148.82;100.00;60434.72;4986647;28;20333;-62
2022/08/16 10:53:26;;;;;;;4.30;4.00;;;;;;;-148.82;100.00;60434.72;4988443;28;20265;-61
2022/08/16 10:56:00;;;;;;;3.47;3.27;;;;;;;-148.82;100.00;60434.72;4978312;28;20335;-62
2022/08/16 10:58:29;;;;;;;3.50;3.30;;;;;;;-148.82;100.00;60434.72;4983902;28;20304;-60
2022/08/16 11:01:05;;;;;;;4.30;3.90;;;;;;;-148.82;100.00;60434.72;4987372;28;20630;-62
2022/08/16 11:03:53;;;;;;;2.93;2.80;;;;;;;-148.82;100.00;60434.72;4952664;28;20402;-63
2022/08/16 11:06:24;;;;;;;3.97;3.50;;;;;;;-148.82;100.00;60434.72;4989967;28;20235;-59
2022/08/16 11:08:57;;;;;;;3.97;3.40;;;;;;;-148.82;100.00;60434.72;4970823;28;20338;-65
2022/08/16 11:11:46;;;;;;;3.07;2.77;;;;;;;-148.82;100.00;60434.72;4989385;28;20857;-61
2022/08/16 11:14:35;;;;;;;3.30;3.10;;;;;;;-148.82;100.00;60434.72;4984474;28;20324;-59
2022/08/16 11:17:06;;;;;;;3.43;3.23;;;;;;;-148.82;100.00;60434.72;4941763;28;20473;-63
2022/08/16 11:19:40;;;;;;;3.27;3.07;;;;;;;-148.82;100.00;60434.72;4979629;28;20706;-60
2022/08/16 11:22:28;;;;;;;5.60;3.10;;;;;;;-148.82;100.00;60434.72;4986349;28;20230;-60
2022/08/16 11:25:18;;;;;;;3.10;2.93;;;;;;;-148.82;100.00;60434.72;4969227;28;20212;-58
2022/08/16 11:28:07;;;;;;;3.90;3.50;;;;;;;-148.82;100.00;60434.72;4986668;28;20597;-62
2022/08/16 11:30:36;;;;;;;5.90;3.57;;;;;;;-148.82;100.00;60434.72;4982973;28;20295;-59
2022/08/16 11:33:08;;;;;;;3.30;3.00;;;;;;;-148.82;100.00;60434.72;4938925;28;21750;-63
2022/08/16 11:35:38;;;;;;;3.17;2.90;;;;;;;-148.82;100.00;60434.72;4979398;28;20233;-62
2022/08/16 11:38:26;;;;;;;3.83;3.30;;;;;;;-148.82;100.00;60434.72;4988235;28;20229;-63
2022/08/16 11:41:15;;;;;;;3.20;3.00;;;;;;;-148.82;100.00;60434.72;4970517;28;20292;-64
2022/08/16 11:43:43;;;;;;;4.13;2.80;;;;;;;-148.82;100.00;60434.72;4982910;28;20698;-62
2022/08/16 11:46:16;;;;;;;3.00;2.67;;;;;;;-148.82;100.00;60434.72;4984659;28;20213;-59
2022/08/16 11:49:06;;;;;;;6.23;3.50;;;;;;;-148.82;100.00;60434.72;4939200;28;20223;-62